sensor_id;sensor_type;location;lat;lon;timestamp;P1;durP1;ratioP1;P2;durP2;ratioP2
17714;SDS011;8977;50.902;4.314;2023-06-26T00:00:31;4.40;;;4.00;;
17714;SDS011;8977;50.902;4.314;2023-06-26T00:02:58;4.97;;;4.00;;
17714;SDS011;8977;50.902;4.314;2023-06-26T00:05:25;5.32;;;4.10;;
17714;SDS011;8977;50.902;4.314;2023-06-26T00:07:55;5.15;;;4.38;;
17714;SDS011;8977;50.902;4.314;2023-06-26T00:10:25;4.65;;;4.00;;
17714;SDS011;8977;50.902;4.314;2023-06-26T00:12:53;6.32;;;4.80;;
17714;SDS011;8977;50.902;4.314;2023-06-26T00:15:21;4.30;;;3.90;;
17714;SDS011;8977;50.902;4.314;2023-06-26T00:17:49;4.72;;;4.32;;
17714;SDS011;8977;50.902;4.314;2023-06-26T00:20:16;4.88;;;4.30;;
17714;SDS011;8977;50.902;4.314;2023-06-26T00:22:44;3.80;;;3.50;;
17714;SDS011;8977;50.902;4.314;2023-06-26T00:25:11;5.05;;;4.07;;
17714;SDS011;8977;50.902;4.314;2023-06-26T00:27:38;5.25;;;3.50;;
17714;SDS011;8977;50.902;4.314;2023-06-26T00:30:07;4.22;;;3.83;;
17714;SDS011;8977;50.902;4.314;2023-06-26T00:32:35;4.10;;;3.67;;
17714;SDS011;8977;50.902;4.314;2023-06-26T00:35:02;4.05;;;2.97;;
17714;SDS011;8977;50.902;4.314;2023-06-26T00:37:30;3.63;;;3.30;;
17714;SDS011;8977;50.902;4.314;2023-06-26T00:39:56;4.07;;;2.95;;
17714;SDS011;8977;50.902;4.314;2023-06-26T00:42:23;3.42;;;3.10;;
17714;SDS011;8977;50.902;4.314;2023-06-26T00:44:50;4.45;;;3.03;;
17714;SDS011;8977;50.902;4.314;2023-06-26T00:47:20;5.95;;;3.47;;
17714;SDS011;8977;50.902;4.314;2023-06-26T00:49:47;4.05;;;3.42;;
17714;SDS011;8977;50.902;4.314;2023-06-26T00:52:15;6.75;;;3.53;;
17714;SDS011;8977;50.902;4.314;2023-06-26T00:54:42;4.18;;;3.10;;
17714;SDS011;8977;50.902;4.314;2023-06-26T00:57:10;4.55;;;3.05;;
17714;SDS011;8977;50.902;4.314;2023-06-26T00:59:36;3.80;;;3.00;;
17714;SDS011;8977;50.902;4.314;2023-06-26T01:02:04;4.55;;;3.05;;
17714;SDS011;8977;50.902;4.314;2023-06-26T01:04:32;5.40;;;3.40;;
17714;SDS011;8977;50.902;4.314;2023-06-26T01:06:59;4.47;;;3.25;;
17714;SDS011;8977;50.902;4.314;2023-06-26T01:09:28;6.38;;;3.60;;
17714;SDS011;8977;50.902;4.314;2023-06-26T01:11:55;6.38;;;3.80;;
17714;SDS011;8977;50.902;4.314;2023-06-26T01:14:24;5.72;;;3.20;;
17714;SDS011;8977;50.902;4.314;2023-06-26T01:16:51;3.70;;;3.00;;
17714;SDS011;8977;50.902;4.314;2023-06-26T01:19:23;4.97;;;3.10;;
17714;SDS011;8977;50.902;4.314;2023-06-26T01:21:56;3.95;;;2.85;;
17714;SDS011;8977;50.902;4.314;2023-06-26T01:24:31;4.68;;;3.17;;
17714;SDS011;8977;50.902;4.314;2023-06-26T01:27:03;4.28;;;3.17;;
17714;SDS011;8977;50.902;4.314;2023-06-26T01:29:31;5.35;;;3.28;;
17714;SDS011;8977;50.902;4.314;2023-06-26T01:31:59;4.20;;;2.92;;
17714;SDS011;8977;50.902;4.314;2023-06-26T01:34:27;4.40;;;3.20;;
17714;SDS011;8977;50.902;4.314;2023-06-26T01:36:54;4.72;;;3.10;;
17714;SDS011;8977;50.902;4.314;2023-06-26T01:39:21;5.25;;;2.72;;
17714;SDS011;8977;50.902;4.314;2023-06-26T01:41:48;4.15;;;3.28;;
17714;SDS011;8977;50.902;4.314;2023-06-26T01:44:19;3.63;;;2.97;;
17714;SDS011;8977;50.902;4.314;2023-06-26T01:46:55;5.43;;;3.55;;
17714;SDS011;8977;50.902;4.314;2023-06-26T01:49:29;3.97;;;2.55;;
17714;SDS011;8977;50.902;4.314;2023-06-26T01:52:06;4.05;;;2.88;;
17714;SDS011;8977;50.902;4.314;2023-06-26T01:54:42;3.67;;;2.60;;
17714;SDS011;8977;50.902;4.314;2023-06-26T01:57:15;5.15;;;2.70;;
17714;SDS011;8977;50.902;4.314;2023-06-26T01:59:46;6.68;;;2.90;;
17714;SDS011;8977;50.902;4.314;2023-06-26T02:02:13;6.15;;;3.10;;
17714;SDS011;8977;50.902;4.314;2023-06-26T02:04:40;4.18;;;3.22;;
17714;SDS011;8977;50.902;4.314;2023-06-26T02:07:07;3.83;;;2.88;;
17714;SDS011;8977;50.902;4.314;2023-06-26T02:09:35;4.40;;;2.83;;
17714;SDS011;8977;50.902;4.314;2023-06-26T02:12:02;4.45;;;2.88;;
17714;SDS011;8977;50.902;4.314;2023-06-26T02:14:29;5.28;;;3.38;;
17714;SDS011;8977;50.902;4.314;2023-06-26T02:16:58;3.65;;;2.35;;
17714;SDS011;8977;50.902;4.314;2023-06-26T02:19:25;5.25;;;2.67;;
17714;SDS011;8977;50.902;4.314;2023-06-26T02:21:52;4.18;;;2.80;;
17714;SDS011;8977;50.902;4.314;2023-06-26T02:24:19;4.75;;;2.55;;
17714;SDS011;8977;50.902;4.314;2023-06-26T02:26:46;4.80;;;2.70;;
17714;SDS011;8977;50.902;4.314;2023-06-26T02:29:14;5.53;;;2.90;;
17714;SDS011;8977;50.902;4.314;2023-06-26T02:31:41;8.88;;;2.92;;
17714;SDS011;8977;50.902;4.314;2023-06-26T02:34:09;6.03;;;2.83;;
17714;SDS011;8977;50.902;4.314;2023-06-26T02:36:36;4.40;;;2.75;;
17714;SDS011;8977;50.902;4.314;2023-06-26T02:39:04;4.40;;;3.00;;
17714;SDS011;8977;50.902;4.314;2023-06-26T02:41:31;5.40;;;3.20;;
17714;SDS011;8977;50.902;4.314;2023-06-26T02:43:58;6.45;;;3.35;;
17714;SDS011;8977;50.902;4.314;2023-06-26T02:46:25;4.20;;;2.63;;
17714;SDS011;8977;50.902;4.314;2023-06-26T02:48:52;5.30;;;3.40;;
17714;SDS011;8977;50.902;4.314;2023-06-26T02:51:20;7.10;;;3.10;;
17714;SDS011;8977;50.902;4.314;2023-06-26T02:53:47;5.60;;;3.17;;
17714;SDS011;8977;50.902;4.314;2023-06-26T02:56:14;5.32;;;3.10;;
17714;SDS011;8977;50.902;4.314;2023-06-26T02:58:41;6.45;;;3.25;;
17714;SDS011;8977;50.902;4.314;2023-06-26T03:01:08;6.32;;;3.30;;
17714;SDS011;8977;50.902;4.314;2023-06-26T03:03:35;8.02;;;3.38;;
17714;SDS011;8977;50.902;4.314;2023-06-26T03:06:05;5.95;;;3.50;;
17714;SDS011;8977;50.902;4.314;2023-06-26T03:08:35;8.18;;;3.35;;
17714;SDS011;8977;50.902;4.314;2023-06-26T03:11:04;8.07;;;3.40;;
17714;SDS011;8977;50.902;4.314;2023-06-26T03:13:31;6.95;;;3.22;;
17714;SDS011;8977;50.902;4.314;2023-06-26T03:15:58;6.32;;;3.20;;
17714;SDS011;8977;50.902;4.314;2023-06-26T03:18:25;10.27;;;4.03;;
17714;SDS011;8977;50.902;4.314;2023-06-26T03:20:53;9.65;;;3.45;;
17714;SDS011;8977;50.902;4.314;2023-06-26T03:23:20;6.15;;;3.58;;
17714;SDS011;8977;50.902;4.314;2023-06-26T03:25:49;9.82;;;4.05;;
17714;SDS011;8977;50.902;4.314;2023-06-26T03:28:16;7.38;;;3.05;;
17714;SDS011;8977;50.902;4.314;2023-06-26T03:30:43;9.18;;;3.78;;
17714;SDS011;8977;50.902;4.314;2023-06-26T03:33:10;6.55;;;3.67;;
17714;SDS011;8977;50.902;4.314;2023-06-26T03:35:37;10.05;;;4.28;;
17714;SDS011;8977;50.902;4.314;2023-06-26T03:38:04;7.75;;;3.63;;
17714;SDS011;8977;50.902;4.314;2023-06-26T03:40:31;7.28;;;3.70;;
17714;SDS011;8977;50.902;4.314;2023-06-26T03:42:59;10.73;;;4.05;;
17714;SDS011;8977;50.902;4.314;2023-06-26T03:45:26;8.27;;;3.65;;
17714;SDS011;8977;50.902;4.314;2023-06-26T03:47:53;9.85;;;3.60;;
17714;SDS011;8977;50.902;4.314;2023-06-26T03:50:20;7.63;;;3.58;;
17714;SDS011;8977;50.902;4.314;2023-06-26T03:52:47;7.10;;;3.70;;
17714;SDS011;8977;50.902;4.314;2023-06-26T03:55:15;10.65;;;3.92;;
17714;SDS011;8977;50.902;4.314;2023-06-26T03:57:43;8.32;;;3.53;;
17714;SDS011;8977;50.902;4.314;2023-06-26T04:00:12;11.45;;;4.03;;
17714;SDS011;8977;50.902;4.314;2023-06-26T04:02:39;14.80;;;4.13;;
17714;SDS011;8977;50.902;4.314;2023-06-26T04:05:06;14.38;;;3.72;;
17714;SDS011;8977;50.902;4.314;2023-06-26T04:07:34;10.82;;;3.72;;
17714;SDS011;8977;50.902;4.314;2023-06-26T04:10:01;11.63;;;4.10;;
17714;SDS011;8977;50.902;4.314;2023-06-26T04:12:28;9.75;;;3.50;;
17714;SDS011;8977;50.902;4.314;2023-06-26T04:14:55;10.85;;;3.85;;
17714;SDS011;8977;50.902;4.314;2023-06-26T04:17:23;8.55;;;3.92;;
17714;SDS011;8977;50.902;4.314;2023-06-26T04:19:50;8.32;;;3.58;;
17714;SDS011;8977;50.902;4.314;2023-06-26T04:22:17;8.40;;;3.63;;
17714;SDS011;8977;50.902;4.314;2023-06-26T04:24:44;9.25;;;3.50;;
17714;SDS011;8977;50.902;4.314;2023-06-26T04:27:11;10.32;;;3.88;;
17714;SDS011;8977;50.902;4.314;2023-06-26T04:29:40;11.15;;;3.78;;
17714;SDS011;8977;50.902;4.314;2023-06-26T04:32:06;12.68;;;3.60;;
17714;SDS011;8977;50.902;4.314;2023-06-26T04:34:35;11.93;;;3.95;;
17714;SDS011;8977;50.902;4.314;2023-06-26T04:37:06;7.78;;;3.20;;
17714;SDS011;8977;50.902;4.314;2023-06-26T04:39:34;9.70;;;3.72;;
17714;SDS011;8977;50.902;4.314;2023-06-26T04:42:03;8.57;;;3.72;;
17714;SDS011;8977;50.902;4.314;2023-06-26T04:44:31;11.77;;;3.60;;
17714;SDS011;8977;50.902;4.314;2023-06-26T04:46:57;8.80;;;3.42;;
17714;SDS011;8977;50.902;4.314;2023-06-26T04:49:24;11.02;;;3.67;;
17714;SDS011;8977;50.902;4.314;2023-06-26T04:51:54;10.70;;;3.47;;
17714;SDS011;8977;50.902;4.314;2023-06-26T04:54:21;9.80;;;3.45;;
17714;SDS011;8977;50.902;4.314;2023-06-26T04:56:48;9.40;;;4.03;;
17714;SDS011;8977;50.902;4.314;2023-06-26T04:59:15;8.43;;;3.30;;
17714;SDS011;8977;50.902;4.314;2023-06-26T05:01:42;9.73;;;3.50;;
17714;SDS011;8977;50.902;4.314;2023-06-26T05:04:09;10.60;;;3.50;;
17714;SDS011;8977;50.902;4.314;2023-06-26T05:06:36;8.35;;;3.13;;
17714;SDS011;8977;50.902;4.314;2023-06-26T05:09:04;11.13;;;3.83;;
17714;SDS011;8977;50.902;4.314;2023-06-26T05:11:31;6.68;;;2.80;;
17714;SDS011;8977;50.902;4.314;2023-06-26T05:13:57;8.98;;;2.92;;
17714;SDS011;8977;50.902;4.314;2023-06-26T05:16:24;9.80;;;3.17;;
17714;SDS011;8977;50.902;4.314;2023-06-26T05:18:51;7.50;;;3.00;;
17714;SDS011;8977;50.902;4.314;2023-06-26T05:21:19;9.18;;;3.20;;
17714;SDS011;8977;50.902;4.314;2023-06-26T05:23:46;9.13;;;3.67;;
17714;SDS011;8977;50.902;4.314;2023-06-26T05:26:15;8.50;;;3.08;;
17714;SDS011;8977;50.902;4.314;2023-06-26T05:28:42;6.18;;;2.80;;
17714;SDS011;8977;50.902;4.314;2023-06-26T05:31:13;8.27;;;3.17;;
17714;SDS011;8977;50.902;4.314;2023-06-26T05:33:41;10.00;;;2.88;;
17714;SDS011;8977;50.902;4.314;2023-06-26T05:36:10;8.60;;;3.00;;
17714;SDS011;8977;50.902;4.314;2023-06-26T05:38:39;9.50;;;3.00;;
17714;SDS011;8977;50.902;4.314;2023-06-26T05:41:07;6.00;;;2.83;;
17714;SDS011;8977;50.902;4.314;2023-06-26T05:43:35;7.80;;;2.75;;
17714;SDS011;8977;50.902;4.314;2023-06-26T05:46:02;11.48;;;2.92;;
17714;SDS011;8977;50.902;4.314;2023-06-26T05:48:29;7.03;;;2.70;;
17714;SDS011;8977;50.902;4.314;2023-06-26T05:50:56;8.27;;;2.75;;
17714;SDS011;8977;50.902;4.314;2023-06-26T05:53:24;6.00;;;2.53;;
17714;SDS011;8977;50.902;4.314;2023-06-26T05:55:51;9.60;;;2.83;;
17714;SDS011;8977;50.902;4.314;2023-06-26T05:58:18;6.45;;;2.65;;
17714;SDS011;8977;50.902;4.314;2023-06-26T06:00:49;11.10;;;2.78;;
17714;SDS011;8977;50.902;4.314;2023-06-26T06:03:16;6.03;;;2.20;;
17714;SDS011;8977;50.902;4.314;2023-06-26T06:05:42;5.85;;;2.20;;
17714;SDS011;8977;50.902;4.314;2023-06-26T06:08:09;5.88;;;2.47;;
17714;SDS011;8977;50.902;4.314;2023-06-26T06:10:36;5.95;;;2.28;;
17714;SDS011;8977;50.902;4.314;2023-06-26T06:13:03;9.18;;;2.30;;
17714;SDS011;8977;50.902;4.314;2023-06-26T06:15:30;8.60;;;2.08;;
17714;SDS011;8977;50.902;4.314;2023-06-26T06:17:58;6.95;;;2.45;;
17714;SDS011;8977;50.902;4.314;2023-06-26T06:20:25;11.57;;;2.58;;
17714;SDS011;8977;50.902;4.314;2023-06-26T06:22:52;8.63;;;2.65;;
17714;SDS011;8977;50.902;4.314;2023-06-26T06:25:19;4.88;;;1.98;;
17714;SDS011;8977;50.902;4.314;2023-06-26T06:27:46;5.05;;;2.40;;
17714;SDS011;8977;50.902;4.314;2023-06-26T06:30:13;6.18;;;2.15;;
17714;SDS011;8977;50.902;4.314;2023-06-26T06:32:40;6.43;;;2.40;;
17714;SDS011;8977;50.902;4.314;2023-06-26T06:35:08;6.97;;;2.33;;
17714;SDS011;8977;50.902;4.314;2023-06-26T06:37:35;7.13;;;2.33;;
17714;SDS011;8977;50.902;4.314;2023-06-26T06:40:03;5.95;;;1.83;;
17714;SDS011;8977;50.902;4.314;2023-06-26T06:42:31;4.97;;;1.95;;
17714;SDS011;8977;50.902;4.314;2023-06-26T06:44:59;3.83;;;1.63;;
17714;SDS011;8977;50.902;4.314;2023-06-26T06:47:26;8.63;;;2.30;;
17714;SDS011;8977;50.902;4.314;2023-06-26T06:49:52;9.23;;;2.00;;
17714;SDS011;8977;50.902;4.314;2023-06-26T06:52:21;3.92;;;1.70;;
17714;SDS011;8977;50.902;4.314;2023-06-26T06:54:51;6.82;;;2.08;;
17714;SDS011;8977;50.902;4.314;2023-06-26T06:57:19;5.15;;;2.30;;
17714;SDS011;8977;50.902;4.314;2023-06-26T06:59:46;6.65;;;1.83;;
17714;SDS011;8977;50.902;4.314;2023-06-26T07:02:13;4.88;;;1.80;;
17714;SDS011;8977;50.902;4.314;2023-06-26T07:04:40;6.38;;;2.00;;
17714;SDS011;8977;50.902;4.314;2023-06-26T07:07:07;4.50;;;1.80;;
17714;SDS011;8977;50.902;4.314;2023-06-26T07:09:36;5.53;;;1.90;;
17714;SDS011;8977;50.902;4.314;2023-06-26T07:12:03;5.30;;;1.92;;
17714;SDS011;8977;50.902;4.314;2023-06-26T07:14:30;6.78;;;2.35;;
17714;SDS011;8977;50.902;4.314;2023-06-26T07:16:57;5.25;;;2.08;;
17714;SDS011;8977;50.902;4.314;2023-06-26T07:19:24;4.28;;;1.70;;
17714;SDS011;8977;50.902;4.314;2023-06-26T07:21:51;4.75;;;1.80;;
17714;SDS011;8977;50.902;4.314;2023-06-26T07:24:17;4.03;;;1.70;;
17714;SDS011;8977;50.902;4.314;2023-06-26T07:26:46;3.90;;;1.90;;
17714;SDS011;8977;50.902;4.314;2023-06-26T07:29:12;5.30;;;2.17;;
17714;SDS011;8977;50.902;4.314;2023-06-26T07:31:39;3.97;;;1.83;;
17714;SDS011;8977;50.902;4.314;2023-06-26T07:34:06;4.30;;;1.50;;
17714;SDS011;8977;50.902;4.314;2023-06-26T07:36:33;3.17;;;1.50;;
17714;SDS011;8977;50.902;4.314;2023-06-26T07:39:00;6.25;;;1.63;;
17714;SDS011;8977;50.902;4.314;2023-06-26T07:41:27;5.13;;;1.67;;
17714;SDS011;8977;50.902;4.314;2023-06-26T07:43:57;5.15;;;1.95;;
17714;SDS011;8977;50.902;4.314;2023-06-26T07:46:25;7.25;;;1.95;;
17714;SDS011;8977;50.902;4.314;2023-06-26T07:48:51;4.95;;;1.90;;
17714;SDS011;8977;50.902;4.314;2023-06-26T07:51:18;4.55;;;1.73;;
17714;SDS011;8977;50.902;4.314;2023-06-26T07:53:45;7.28;;;2.30;;
17714;SDS011;8977;50.902;4.314;2023-06-26T07:56:12;6.47;;;1.83;;
17714;SDS011;8977;50.902;4.314;2023-06-26T07:58:39;6.18;;;2.45;;
17714;SDS011;8977;50.902;4.314;2023-06-26T08:01:07;4.60;;;1.77;;
17714;SDS011;8977;50.902;4.314;2023-06-26T08:03:34;4.72;;;1.80;;
17714;SDS011;8977;50.902;4.314;2023-06-26T08:06:01;3.47;;;1.75;;
17714;SDS011;8977;50.902;4.314;2023-06-26T08:08:29;3.17;;;1.75;;
17714;SDS011;8977;50.902;4.314;2023-06-26T08:10:56;3.70;;;1.92;;
17714;SDS011;8977;50.902;4.314;2023-06-26T08:13:23;6.25;;;2.22;;
17714;SDS011;8977;50.902;4.314;2023-06-26T08:15:50;7.32;;;2.03;;
17714;SDS011;8977;50.902;4.314;2023-06-26T08:18:18;4.65;;;1.73;;
17714;SDS011;8977;50.902;4.314;2023-06-26T08:20:45;5.32;;;1.80;;
17714;SDS011;8977;50.902;4.314;2023-06-26T08:23:12;3.60;;;1.73;;
17714;SDS011;8977;50.902;4.314;2023-06-26T08:25:39;6.72;;;1.95;;
17714;SDS011;8977;50.902;4.314;2023-06-26T08:28:06;5.28;;;2.00;;
17714;SDS011;8977;50.902;4.314;2023-06-26T08:30:33;3.42;;;1.73;;
17714;SDS011;8977;50.902;4.314;2023-06-26T08:33:00;4.00;;;1.98;;
17714;SDS011;8977;50.902;4.314;2023-06-26T08:35:28;5.15;;;2.00;;
17714;SDS011;8977;50.902;4.314;2023-06-26T08:37:55;3.28;;;1.60;;
17714;SDS011;8977;50.902;4.314;2023-06-26T08:40:21;4.70;;;1.55;;
17714;SDS011;8977;50.902;4.314;2023-06-26T08:42:49;2.30;;;1.20;;
17714;SDS011;8977;50.902;4.314;2023-06-26T08:45:18;5.93;;;1.67;;
17714;SDS011;8977;50.902;4.314;2023-06-26T08:47:46;6.30;;;1.55;;
17714;SDS011;8977;50.902;4.314;2023-06-26T08:50:17;3.15;;;1.30;;
17714;SDS011;8977;50.902;4.314;2023-06-26T08:52:52;4.32;;;1.58;;
17714;SDS011;8977;50.902;4.314;2023-06-26T08:55:23;3.28;;;1.52;;
17714;SDS011;8977;50.902;4.314;2023-06-26T08:57:53;4.63;;;1.20;;
17714;SDS011;8977;50.902;4.314;2023-06-26T09:00:20;4.35;;;1.30;;
17714;SDS011;8977;50.902;4.314;2023-06-26T09:02:47;2.47;;;1.27;;
17714;SDS011;8977;50.902;4.314;2023-06-26T09:05:14;3.17;;;1.35;;
17714;SDS011;8977;50.902;4.314;2023-06-26T09:07:41;3.50;;;1.45;;
17714;SDS011;8977;50.902;4.314;2023-06-26T09:10:10;4.82;;;1.60;;
17714;SDS011;8977;50.902;4.314;2023-06-26T09:12:37;2.63;;;1.45;;
17714;SDS011;8977;50.902;4.314;2023-06-26T09:15:05;3.55;;;1.40;;
17714;SDS011;8977;50.902;4.314;2023-06-26T09:17:33;3.15;;;1.60;;
17714;SDS011;8977;50.902;4.314;2023-06-26T09:20:05;3.30;;;1.33;;
17714;SDS011;8977;50.902;4.314;2023-06-26T09:22:35;3.08;;;1.45;;
17714;SDS011;8977;50.902;4.314;2023-06-26T09:25:04;4.35;;;1.52;;
17714;SDS011;8977;50.902;4.314;2023-06-26T09:27:33;4.45;;;1.70;;
17714;SDS011;8977;50.902;4.314;2023-06-26T09:30:01;4.50;;;1.50;;
17714;SDS011;8977;50.902;4.314;2023-06-26T09:32:28;5.07;;;1.70;;
17714;SDS011;8977;50.902;4.314;2023-06-26T09:34:55;3.22;;;1.70;;
17714;SDS011;8977;50.902;4.314;2023-06-26T09:37:25;2.78;;;1.48;;
17714;SDS011;8977;50.902;4.314;2023-06-26T09:39:52;4.78;;;1.80;;
17714;SDS011;8977;50.902;4.314;2023-06-26T09:42:19;3.00;;;1.20;;
17714;SDS011;8977;50.902;4.314;2023-06-26T09:44:48;5.40;;;1.70;;
17714;SDS011;8977;50.902;4.314;2023-06-26T09:47:16;3.30;;;1.50;;
17714;SDS011;8977;50.902;4.314;2023-06-26T09:49:44;2.15;;;1.50;;
17714;SDS011;8977;50.902;4.314;2023-06-26T09:52:13;3.90;;;1.40;;
17714;SDS011;8977;50.902;4.314;2023-06-26T09:54:41;6.57;;;1.52;;
17714;SDS011;8977;50.902;4.314;2023-06-26T09:57:10;4.40;;;1.50;;
17714;SDS011;8977;50.902;4.314;2023-06-26T09:59:38;3.70;;;1.40;;
17714;SDS011;8977;50.902;4.314;2023-06-26T10:02:07;7.30;;;1.73;;
17714;SDS011;8977;50.902;4.314;2023-06-26T10:04:35;4.05;;;1.15;;
17714;SDS011;8977;50.902;4.314;2023-06-26T10:07:04;1.83;;;1.25;;
17714;SDS011;8977;50.902;4.314;2023-06-26T10:09:32;1.63;;;1.10;;
17714;SDS011;8977;50.902;4.314;2023-06-26T10:12:04;2.72;;;1.40;;
17714;SDS011;8977;50.902;4.314;2023-06-26T10:14:35;2.58;;;1.50;;
17714;SDS011;8977;50.902;4.314;2023-06-26T10:17:06;4.43;;;1.63;;
17714;SDS011;8977;50.902;4.314;2023-06-26T10:19:39;3.17;;;1.55;;
17714;SDS011;8977;50.902;4.314;2023-06-26T10:22:08;2.90;;;1.10;;
17714;SDS011;8977;50.902;4.314;2023-06-26T10:24:37;2.75;;;1.30;;
17714;SDS011;8977;50.902;4.314;2023-06-26T10:27:08;3.28;;;1.50;;
17714;SDS011;8977;50.902;4.314;2023-06-26T10:29:40;4.28;;;1.60;;
17714;SDS011;8977;50.902;4.314;2023-06-26T10:32:10;2.58;;;1.63;;
17714;SDS011;8977;50.902;4.314;2023-06-26T10:34:40;2.65;;;1.73;;
17714;SDS011;8977;50.902;4.314;2023-06-26T10:37:07;4.53;;;1.80;;
17714;SDS011;8977;50.902;4.314;2023-06-26T10:39:47;4.60;;;1.50;;
17714;SDS011;8977;50.902;4.314;2023-06-26T10:42:15;2.10;;;1.45;;
17714;SDS011;8977;50.902;4.314;2023-06-26T10:44:44;4.15;;;1.73;;
17714;SDS011;8977;50.902;4.314;2023-06-26T10:47:12;6.05;;;1.60;;
17714;SDS011;8977;50.902;4.314;2023-06-26T10:49:55;6.53;;;1.83;;
17714;SDS011;8977;50.902;4.314;2023-06-26T10:52:22;2.05;;;1.40;;
17714;SDS011;8977;50.902;4.314;2023-06-26T10:54:52;2.88;;;1.40;;
17714;SDS011;8977;50.902;4.314;2023-06-26T10:57:23;3.42;;;1.55;;
17714;SDS011;8977;50.902;4.314;2023-06-26T11:02:48;3.55;;;1.13;;
17714;SDS011;8977;50.902;4.314;2023-06-26T11:05:23;4.60;;;1.45;;
17714;SDS011;8977;50.902;4.314;2023-06-26T11:08:04;5.10;;;1.60;;
17714;SDS011;8977;50.902;4.314;2023-06-26T11:10:48;5.18;;;1.58;;
17714;SDS011;8977;50.902;4.314;2023-06-26T11:13:16;2.58;;;1.50;;
17714;SDS011;8977;50.902;4.314;2023-06-26T11:15:44;3.35;;;1.30;;
17714;SDS011;8977;50.902;4.314;2023-06-26T11:18:13;3.65;;;1.67;;
17714;SDS011;8977;50.902;4.314;2023-06-26T11:20:40;3.83;;;2.00;;
17714;SDS011;8977;50.902;4.314;2023-06-26T11:23:07;7.75;;;1.60;;
17714;SDS011;8977;50.902;4.314;2023-06-26T11:25:35;3.72;;;1.60;;
17714;SDS011;8977;50.902;4.314;2023-06-26T11:28:02;4.07;;;1.63;;
17714;SDS011;8977;50.902;4.314;2023-06-26T11:30:30;4.15;;;1.73;;
17714;SDS011;8977;50.902;4.314;2023-06-26T11:33:04;2.60;;;1.55;;
17714;SDS011;8977;50.902;4.314;2023-06-26T11:35:33;3.72;;;1.70;;
17714;SDS011;8977;50.902;4.314;2023-06-26T11:38:00;4.85;;;1.60;;
17714;SDS011;8977;50.902;4.314;2023-06-26T11:40:30;3.28;;;1.67;;
17714;SDS011;8977;50.902;4.314;2023-06-26T11:42:58;2.85;;;1.75;;
17714;SDS011;8977;50.902;4.314;2023-06-26T11:45:27;5.43;;;1.70;;
17714;SDS011;8977;50.902;4.314;2023-06-26T11:47:54;3.33;;;1.50;;
17714;SDS011;8977;50.902;4.314;2023-06-26T11:50:22;2.95;;;1.40;;
17714;SDS011;8977;50.902;4.314;2023-06-26T11:52:54;4.47;;;1.63;;
17714;SDS011;8977;50.902;4.314;2023-06-26T11:55:21;3.28;;;1.70;;
17714;SDS011;8977;50.902;4.314;2023-06-26T11:57:49;2.92;;;2.08;;
17714;SDS011;8977;50.902;4.314;2023-06-26T12:00:16;2.42;;;1.60;;
17714;SDS011;8977;50.902;4.314;2023-06-26T12:02:44;4.32;;;1.52;;
17714;SDS011;8977;50.902;4.314;2023-06-26T12:05:11;4.90;;;1.98;;
17714;SDS011;8977;50.902;4.314;2023-06-26T12:07:38;3.28;;;1.92;;
17714;SDS011;8977;50.902;4.314;2023-06-26T12:10:08;4.13;;;1.88;;
17714;SDS011;8977;50.902;4.314;2023-06-26T12:12:36;3.60;;;1.70;;
17714;SDS011;8977;50.902;4.314;2023-06-26T12:15:05;4.55;;;2.05;;
17714;SDS011;8977;50.902;4.314;2023-06-26T12:17:33;3.92;;;1.60;;
17714;SDS011;8977;50.902;4.314;2023-06-26T12:20:03;4.22;;;1.73;;
17714;SDS011;8977;50.902;4.314;2023-06-26T12:22:35;4.70;;;1.58;;
17714;SDS011;8977;50.902;4.314;2023-06-26T12:25:02;3.55;;;1.67;;
17714;SDS011;8977;50.902;4.314;2023-06-26T12:27:31;4.50;;;2.17;;
17714;SDS011;8977;50.902;4.314;2023-06-26T12:29:57;2.78;;;1.52;;
17714;SDS011;8977;50.902;4.314;2023-06-26T12:32:24;6.00;;;1.80;;
17714;SDS011;8977;50.902;4.314;2023-06-26T12:34:51;3.80;;;1.88;;
17714;SDS011;8977;50.902;4.314;2023-06-26T12:37:19;4.63;;;1.83;;
17714;SDS011;8977;50.902;4.314;2023-06-26T12:39:46;3.88;;;1.80;;
17714;SDS011;8977;50.902;4.314;2023-06-26T12:42:15;4.03;;;1.55;;
17714;SDS011;8977;50.902;4.314;2023-06-26T12:44:44;2.67;;;1.50;;
17714;SDS011;8977;50.902;4.314;2023-06-26T12:47:11;3.85;;;1.55;;
17714;SDS011;8977;50.902;4.314;2023-06-26T12:49:40;5.15;;;1.73;;
17714;SDS011;8977;50.902;4.314;2023-06-26T12:52:08;3.55;;;1.50;;
17714;SDS011;8977;50.902;4.314;2023-06-26T12:54:36;2.60;;;1.38;;
17714;SDS011;8977;50.902;4.314;2023-06-26T12:57:04;3.47;;;1.38;;
17714;SDS011;8977;50.902;4.314;2023-06-26T12:59:32;2.45;;;1.55;;
17714;SDS011;8977;50.902;4.314;2023-06-26T13:02:00;3.38;;;1.83;;
17714;SDS011;8977;50.902;4.314;2023-06-26T13:04:27;3.65;;;1.90;;
17714;SDS011;8977;50.902;4.314;2023-06-26T13:06:54;3.15;;;1.70;;
17714;SDS011;8977;50.902;4.314;2023-06-26T13:09:22;3.28;;;1.50;;
17714;SDS011;8977;50.902;4.314;2023-06-26T13:11:50;3.15;;;1.50;;
17714;SDS011;8977;50.902;4.314;2023-06-26T13:14:17;2.90;;;1.52;;
17714;SDS011;8977;50.902;4.314;2023-06-26T13:16:43;3.00;;;1.63;;
17714;SDS011;8977;50.902;4.314;2023-06-26T13:19:12;4.45;;;1.65;;
17714;SDS011;8977;50.902;4.314;2023-06-26T13:21:39;2.80;;;1.80;;
17714;SDS011;8977;50.902;4.314;2023-06-26T13:24:07;3.70;;;1.65;;
17714;SDS011;8977;50.902;4.314;2023-06-26T13:26:34;4.47;;;1.77;;
17714;SDS011;8977;50.902;4.314;2023-06-26T13:29:01;2.97;;;1.63;;
17714;SDS011;8977;50.902;4.314;2023-06-26T13:31:28;4.53;;;1.80;;
17714;SDS011;8977;50.902;4.314;2023-06-26T13:33:56;4.70;;;1.40;;
17714;SDS011;8977;50.902;4.314;2023-06-26T13:36:25;4.85;;;1.50;;
17714;SDS011;8977;50.902;4.314;2023-06-26T13:38:52;3.80;;;1.23;;
17714;SDS011;8977;50.902;4.314;2023-06-26T13:41:20;4.82;;;1.67;;
17714;SDS011;8977;50.902;4.314;2023-06-26T13:43:47;3.22;;;1.60;;
17714;SDS011;8977;50.902;4.314;2023-06-26T13:46:15;4.40;;;1.25;;
17714;SDS011;8977;50.902;4.314;2023-06-26T13:48:42;1.77;;;1.30;;
17714;SDS011;8977;50.902;4.314;2023-06-26T13:51:09;3.67;;;1.88;;
17714;SDS011;8977;50.902;4.314;2023-06-26T13:53:37;4.05;;;1.80;;
17714;SDS011;8977;50.902;4.314;2023-06-26T13:56:04;2.90;;;1.50;;
17714;SDS011;8977;50.902;4.314;2023-06-26T13:58:30;4.57;;;1.70;;
17714;SDS011;8977;50.902;4.314;2023-06-26T14:00:58;5.88;;;1.70;;
17714;SDS011;8977;50.902;4.314;2023-06-26T14:03:26;2.55;;;1.50;;
17714;SDS011;8977;50.902;4.314;2023-06-26T14:05:53;2.95;;;1.70;;
17714;SDS011;8977;50.902;4.314;2023-06-26T14:08:20;4.00;;;1.45;;
17714;SDS011;8977;50.902;4.314;2023-06-26T14:10:48;5.28;;;1.50;;
17714;SDS011;8977;50.902;4.314;2023-06-26T14:13:15;5.10;;;1.60;;
17714;SDS011;8977;50.902;4.314;2023-06-26T14:15:42;2.08;;;1.27;;
17714;SDS011;8977;50.902;4.314;2023-06-26T14:18:09;5.10;;;1.65;;
17714;SDS011;8977;50.902;4.314;2023-06-26T14:20:36;3.53;;;1.40;;
17714;SDS011;8977;50.902;4.314;2023-06-26T14:23:03;3.85;;;1.60;;
17714;SDS011;8977;50.902;4.314;2023-06-26T14:25:30;3.38;;;1.40;;
17714;SDS011;8977;50.902;4.314;2023-06-26T14:27:58;3.78;;;1.40;;
17714;SDS011;8977;50.902;4.314;2023-06-26T14:30:25;5.05;;;1.40;;
17714;SDS011;8977;50.902;4.314;2023-06-26T14:32:52;2.47;;;1.42;;
17714;SDS011;8977;50.902;4.314;2023-06-26T14:35:19;3.35;;;1.38;;
17714;SDS011;8977;50.902;4.314;2023-06-26T14:37:47;1.85;;;1.27;;
17714;SDS011;8977;50.902;4.314;2023-06-26T14:40:14;5.80;;;1.40;;
17714;SDS011;8977;50.902;4.314;2023-06-26T14:42:41;5.45;;;1.60;;
17714;SDS011;8977;50.902;4.314;2023-06-26T14:45:12;3.65;;;1.30;;
17714;SDS011;8977;50.902;4.314;2023-06-26T14:47:38;4.97;;;1.70;;
17714;SDS011;8977;50.902;4.314;2023-06-26T14:50:06;2.28;;;1.25;;
17714;SDS011;8977;50.902;4.314;2023-06-26T14:52:34;4.30;;;1.67;;
17714;SDS011;8977;50.902;4.314;2023-06-26T14:55:00;4.53;;;1.58;;
17714;SDS011;8977;50.902;4.314;2023-06-26T14:57:27;3.20;;;1.77;;
17714;SDS011;8977;50.902;4.314;2023-06-26T14:59:55;3.28;;;1.52;;
17714;SDS011;8977;50.902;4.314;2023-06-26T15:02:23;4.03;;;1.52;;
17714;SDS011;8977;50.902;4.314;2023-06-26T15:04:50;2.22;;;1.17;;
17714;SDS011;8977;50.902;4.314;2023-06-26T15:07:17;2.20;;;1.45;;